Time;durP1;ratioP1;P1;durP2;ratioP2;P2;SDS_P1;SDS_P2;PMS_P1;PMS_P2;Temp;Humidity;BMP_temperature;BMP_pressure;BME280_temperature;BME280_humidity;BME280_pressure;Samples;Min_cycle;Max_cycle;Signal;HPM_P1;HPM_P2
2022/04/15 00:00:11;;;;;;;1.90;1.80;;;6.30;99.90;;;;;;4981010;28;20164;-72
2022/04/15 00:02:37;;;;;;;1.83;1.75;;;6.40;99.90;;;;;;5006896;28;20052;-72
2022/04/15 00:05:11;;;;;;;1.85;1.75;;;6.40;99.90;;;;;;4990419;28;20445;-72
2022/04/15 00:07:36;;;;;;;1.35;1.35;;;6.50;99.90;;;;;;5007825;28;20042;-72
2022/04/15 00:10:02;;;;;;;1.55;1.50;;;6.50;99.90;;;;;;5007534;28;20103;-71
2022/04/15 00:12:28;;;;;;;2.03;1.90;;;6.60;99.90;;;;;;5005334;28;20046;-71
2022/04/15 00:14:55;;;;;;;1.42;1.42;;;6.70;99.90;;;;;;4999297;28;20053;-72
2022/04/15 00:17:20;;;;;;;6.20;4.80;;;6.70;99.90;;;;;;4972479;28;20495;-72
2022/04/15 00:19:47;;;;;;;4.05;3.75;;;6.80;99.90;;;;;;5003184;28;20049;-72
2022/04/15 00:22:13;;;;;;;1.60;1.60;;;6.80;99.90;;;;;;5007114;28;20042;-72
2022/04/15 00:24:38;;;;;;;2.83;2.45;;;6.90;99.90;;;;;;4991486;28;20038;-71
2022/04/15 00:27:04;;;;;;;3.67;3.38;;;7.00;99.90;;;;;;4993471;28;20517;-72
2022/04/15 00:29:30;;;;;;;2.92;2.78;;;7.00;99.90;;;;;;4981666;28;20037;-72
2022/04/15 00:31:56;;;;;;;2.53;2.42;;;7.00;99.90;;;;;;5011176;28;20494;-72
2022/04/15 00:34:21;;;;;;;2.72;2.63;;;7.10;99.90;;;;;;4992991;28;20129;-72
2022/04/15 00:36:47;;;;;;;3.33;3.13;;;7.20;99.90;;;;;;5010103;28;20128;-72
2022/04/15 00:39:13;;;;;;;2.40;2.30;;;7.20;99.90;;;;;;5001110;28;20084;-72
2022/04/15 00:41:43;;;;;;;3.17;2.53;;;7.20;99.90;;;;;;5006841;28;20497;-72
2022/04/15 00:44:08;;;;;;;2.75;2.42;;;7.30;99.90;;;;;;4991931;28;20041;-71
2022/04/15 00:46:34;;;;;;;6.97;3.58;;;7.30;99.90;;;;;;4994823;28;20042;-72
2022/04/15 00:48:59;;;;;;;2.78;2.58;;;7.40;99.90;;;;;;5010445;28;20046;-72
2022/04/15 00:51:25;;;;;;;2.50;2.40;;;7.40;99.90;;;;;;4989629;28;20402;-72
2022/04/15 00:53:53;;;;;;;4.32;4.03;;;7.40;99.90;;;;;;5006972;28;20049;-72
2022/04/15 00:56:20;;;;;;;2.60;2.50;;;7.50;99.90;;;;;;5005776;28;20042;-72
2022/04/15 00:58:48;;;;;;;2.90;2.80;;;7.50;99.90;;;;;;4994582;28;20878;-72
2022/04/15 01:01:16;;;;;;;3.90;3.67;;;7.50;99.90;;;;;;4995867;28;20049;-72
2022/04/15 01:03:43;;;;;;;3.47;3.28;;;7.50;99.90;;;;;;5004543;28;20038;-72
2022/04/15 01:06:11;;;;;;;3.33;3.13;;;7.60;99.90;;;;;;5025952;28;20049;-72
2022/04/15 01:08:38;;;;;;;3.40;3.20;;;7.60;99.90;;;;;;4998031;28;20052;-72
2022/04/15 01:11:04;;;;;;;4.70;4.50;;;7.60;99.90;;;;;;4997903;28;20091;-72
2022/04/15 01:13:34;;;;;;;3.20;3.00;;;7.60;99.90;;;;;;4997739;28;20037;-71
2022/04/15 01:16:00;;;;;;;6.10;5.70;;;7.70;99.90;;;;;;5014326;28;20510;-72
2022/04/15 01:18:25;;;;;;;4.82;4.43;;;7.70;99.90;;;;;;5006795;28;20056;-72
2022/04/15 01:20:52;;;;;;;3.65;3.45;;;7.70;99.90;;;;;;5011243;28;20045;-72
2022/04/15 01:23:19;;;;;;;5.78;5.47;;;7.70;99.90;;;;;;4995811;28;20490;-71
2022/04/15 01:25:45;;;;;;;3.13;2.97;;;7.80;99.90;;;;;;5009461;28;20514;-72
2022/04/15 01:28:10;;;;;;;3.92;3.72;;;7.80;99.90;;;;;;5011197;28;20080;-72
2022/04/15 01:30:36;;;;;;;3.30;3.10;;;7.80;99.90;;;;;;5011372;28;20099;-72
2022/04/15 01:33:03;;;;;;;5.47;5.18;;;7.80;99.90;;;;;;4978291;28;20057;-72
2022/04/15 01:35:29;;;;;;;6.45;6.05;;;7.90;99.90;;;;;;4980921;28;20041;-71
2022/04/15 01:37:57;;;;;;;5.55;5.15;;;7.90;99.90;;;;;;4997588;28;20408;-71
2022/04/15 01:40:23;;;;;;;7.45;7.00;;;7.90;99.90;;;;;;5013990;28;20056;-71
2022/04/15 01:42:49;;;;;;;7.28;6.78;;;7.90;99.90;;;;;;4996664;28;20041;-72
2022/04/15 01:45:15;;;;;;;4.40;4.15;;;7.90;99.90;;;;;;5012367;28;20065;-72
2022/04/15 01:47:41;;;;;;;6.97;6.57;;;8.00;99.90;;;;;;5013779;28;20048;-72
2022/04/15 01:50:08;;;;;;;5.03;4.72;;;8.00;99.90;;;;;;4998231;28;20060;-71
2022/04/15 01:52:34;;;;;;;4.18;3.97;;;8.00;99.90;;;;;;5013109;28;20115;-72
2022/04/15 01:55:00;;;;;;;6.60;5.90;;;8.10;99.90;;;;;;4997341;28;20068;-72
2022/04/15 01:57:26;;;;;;;5.22;4.93;;;8.10;99.90;;;;;;5007440;28;20489;-72
2022/04/15 01:59:52;;;;;;;5.10;4.80;;;8.10;99.90;;;;;;5001212;28;20558;-72
2022/04/15 02:02:18;;;;;;;7.68;5.75;;;8.10;99.90;;;;;;4997276;28;20041;-72
2022/04/15 02:04:44;;;;;;;7.53;7.07;;;8.10;99.90;;;;;;4994560;28;20413;-72
2022/04/15 02:07:09;;;;;;;6.78;6.38;;;8.10;99.90;;;;;;4999788;28;20460;-72
2022/04/15 02:09:35;;;;;;;4.40;4.20;;;8.10;99.90;;;;;;4993191;28;20530;-72
2022/04/15 02:12:00;;;;;;;6.55;6.22;;;8.20;99.90;;;;;;4992770;28;20057;-72
2022/04/15 02:14:26;;;;;;;7.13;6.72;;;8.20;99.90;;;;;;4998886;28;20041;-72
2022/04/15 02:16:53;;;;;;;5.03;4.72;;;8.20;99.90;;;;;;4996057;28;20512;-72
2022/04/15 02:19:20;;;;;;;6.40;6.00;;;8.20;99.90;;;;;;5004236;28;20050;-73
2022/04/15 02:21:46;;;;;;;6.55;6.20;;;8.20;99.90;;;;;;5010378;28;20120;-72
2022/04/15 02:24:12;;;;;;;4.05;3.85;;;8.20;99.90;;;;;;5012609;28;20137;-72
2022/04/15 02:26:38;;;;;;;5.63;5.22;;;8.20;99.90;;;;;;5011973;28;20065;-72
2022/04/15 02:29:04;;;;;;;8.98;8.13;;;8.30;99.90;;;;;;4995783;28;20038;-72
2022/04/15 02:31:29;;;;;;;5.45;5.15;;;8.30;99.90;;;;;;5012088;28;20037;-72
2022/04/15 02:33:55;;;;;;;4.80;4.55;;;8.30;99.90;;;;;;5011534;28;20095;-72
2022/04/15 02:36:20;;;;;;;6.80;6.40;;;8.30;99.90;;;;;;5011752;28;20041;-71
2022/04/15 02:38:46;;;;;;;6.55;6.22;;;8.30;99.90;;;;;;5008245;28;20107;-71
2022/04/15 02:41:13;;;;;;;4.32;4.13;;;8.30;99.90;;;;;;5012250;28;20052;-72
2022/04/15 02:43:39;;;;;;;5.13;4.82;;;8.30;99.90;;;;;;5011926;28;20128;-72
2022/04/15 02:46:08;;;;;;;5.38;5.07;;;8.30;99.90;;;;;;5012110;28;20602;-72
2022/04/15 02:48:34;;;;;;;7.18;6.78;;;8.30;99.90;;;;;;5010473;28;20467;-72
2022/04/15 02:51:00;;;;;;;5.68;5.38;;;8.30;99.90;;;;;;5009209;28;20045;-71
2022/04/15 02:53:27;;;;;;;5.57;5.28;;;8.30;99.90;;;;;;4992522;28;20126;-72
2022/04/15 02:55:53;;;;;;;6.95;6.55;;;8.30;99.90;;;;;;5012810;28;20499;-72
2022/04/15 02:58:19;;;;;;;4.60;4.40;;;8.40;99.90;;;;;;4995015;28;20125;-72
2022/04/15 03:00:45;;;;;;;6.82;6.43;;;8.30;99.90;;;;;;5007094;28;20763;-71
2022/04/15 03:03:11;;;;;;;6.22;4.72;;;8.30;99.90;;;;;;4995535;28;20537;-72
2022/04/15 03:05:38;;;;;;;6.97;6.47;;;8.40;99.90;;;;;;5011624;28;20199;-72
2022/04/15 03:08:04;;;;;;;5.38;5.07;;;8.40;99.90;;;;;;5010183;28;20464;-72
2022/04/15 03:10:30;;;;;;;5.72;5.43;;;8.30;99.90;;;;;;5007807;28;20037;-71
2022/04/15 03:12:55;;;;;;;6.95;4.15;;;8.30;99.90;;;;;;4991987;28;20045;-72
2022/04/15 03:15:21;;;;;;;9.10;8.38;;;8.30;99.90;;;;;;5012405;28;20076;-72
2022/04/15 03:17:46;;;;;;;7.05;6.63;;;8.40;99.90;;;;;;5011310;28;20128;-72
2022/04/15 03:20:13;;;;;;;8.38;7.90;;;8.30;99.90;;;;;;4995482;28;20049;-72
2022/04/15 03:22:40;;;;;;;4.43;4.13;;;8.30;99.90;;;;;;5011927;28;20132;-72
2022/04/15 03:25:08;;;;;;;9.38;8.32;;;8.30;99.90;;;;;;4995566;28;20049;-72
2022/04/15 03:27:34;;;;;;;7.55;6.97;;;8.30;99.90;;;;;;4992564;28;20563;-72
2022/04/15 03:29:59;;;;;;;6.18;5.88;;;8.30;99.90;;;;;;5004775;28;20069;-72
2022/04/15 03:32:25;;;;;;;3.97;3.78;;;8.30;99.90;;;;;;5009217;28;20045;-71
2022/04/15 03:34:55;;;;;;;3.90;3.70;;;8.20;99.90;;;;;;4993354;28;20125;-71
2022/04/15 03:37:21;;;;;;;7.35;6.85;;;8.30;99.90;;;;;;4995170;28;20076;-72
2022/04/15 03:39:46;;;;;;;4.20;4.00;;;8.20;99.90;;;;;;4994483;28;20049;-72
2022/04/15 03:42:12;;;;;;;3.92;3.72;;;8.20;99.90;;;;;;5010038;28;20049;-72
2022/04/15 03:44:38;;;;;;;6.82;6.45;;;8.20;99.90;;;;;;4990819;28;20042;-72
2022/04/15 03:47:04;;;;;;;10.60;9.65;;;8.10;99.90;;;;;;5011206;28;20045;-72
2022/04/15 03:49:30;;;;;;;3.78;3.47;;;8.10;99.90;;;;;;4993642;28;20041;-72
2022/04/15 03:51:56;;;;;;;4.25;4.05;;;8.10;99.90;;;;;;5007890;28;20034;-72
2022/04/15 03:54:21;;;;;;;4.28;4.07;;;8.00;99.90;;;;;;4994640;28;20044;-72
2022/04/15 03:56:47;;;;;;;2.92;2.83;;;8.00;99.90;;;;;;4994340;28;20052;-72
2022/04/15 03:59:13;;;;;;;3.40;3.20;;;8.00;99.90;;;;;;5009933;28;20056;-71
2022/04/15 04:01:39;;;;;;;2.90;2.80;;;7.90;99.90;;;;;;4994872;28;20052;-72
2022/04/15 04:04:05;;;;;;;3.97;3.78;;;7.90;99.90;;;;;;5011432;28;20037;-72
2022/04/15 04:06:31;;;;;;;3.50;3.30;;;7.90;99.90;;;;;;5010871;28;20041;-72
2022/04/15 04:08:57;;;;;;;3.20;3.00;;;7.80;99.90;;;;;;5011423;28;20033;-72
2022/04/15 04:11:22;;;;;;;3.63;3.42;;;7.80;99.90;;;;;;4995529;28;20398;-72
2022/04/15 04:13:48;;;;;;;3.15;2.95;;;7.80;99.90;;;;;;5010681;28;20045;-73
2022/04/15 04:16:14;;;;;;;3.15;3.00;;;7.80;99.90;;;;;;5011117;28;20504;-72
2022/04/15 04:18:43;;;;;;;2.92;2.72;;;7.80;99.90;;;;;;5010246;28;20063;-72
2022/04/15 04:21:09;;;;;;;3.05;2.85;;;7.80;99.90;;;;;;5011081;28;20095;-72
2022/04/15 04:23:35;;;;;;;2.97;2.88;;;7.70;99.90;;;;;;5009786;28;20484;-71
2022/04/15 04:26:02;;;;;;;3.10;2.90;;;7.70;99.90;;;;;;5007868;28;20050;-72
2022/04/15 04:28:28;;;;;;;3.53;3.33;;;7.70;99.90;;;;;;4999447;28;20046;-72
2022/04/15 04:30:54;;;;;;;3.92;3.72;;;7.70;99.90;;;;;;5020801;28;20060;-72
2022/04/15 04:33:20;;;;;;;3.65;3.45;;;7.70;99.90;;;;;;4990864;28;20076;-73
2022/04/15 04:35:46;;;;;;;3.92;3.72;;;7.60;99.90;;;;;;4991157;28;20624;-72
2022/04/15 04:38:11;;;;;;;3.42;3.13;;;7.60;99.90;;;;;;5007375;28;20077;-72
2022/04/15 04:40:37;;;;;;;5.90;5.50;;;7.60;99.90;;;;;;4991337;28;20544;-73
2022/04/15 04:43:04;;;;;;;4.20;4.00;;;7.60;99.90;;;;;;5007537;28;20413;-72
2022/04/15 04:45:31;;;;;;;6.32;5.93;;;7.60;99.90;;;;;;5006752;28;20038;-72
2022/04/15 04:47:58;;;;;;;3.58;2.40;;;7.60;99.90;;;;;;5004358;28;20046;-72
2022/04/15 04:50:24;;;;;;;3.42;3.22;;;7.50;99.90;;;;;;5004485;28;20041;-72
2022/04/15 04:52:50;;;;;;;6.43;6.03;;;7.50;99.90;;;;;;4988321;28;20038;-72
2022/04/15 04:55:16;;;;;;;3.05;2.88;;;7.60;99.90;;;;;;5007206;28;20076;-72
2022/04/15 04:57:44;;;;;;;2.70;2.60;;;7.50;99.90;;;;;;4989528;28;20042;-72
2022/04/15 05:00:11;;;;;;;2.50;2.40;;;7.50;99.90;;;;;;5004917;28;20038;-72
2022/04/15 05:02:37;;;;;;;3.13;2.92;;;7.50;99.90;;;;;;4986715;28;20046;-72
2022/04/15 05:05:04;;;;;;;3.00;2.80;;;7.50;99.90;;;;;;4994101;28;20076;-72
2022/04/15 05:07:31;;;;;;;4.72;4.43;;;7.50;99.90;;;;;;4991950;28;20042;-72
2022/04/15 05:09:56;;;;;;;3.28;3.08;;;7.50;99.90;;;;;;5004733;28;20046;-72
2022/04/15 05:12:22;;;;;;;3.35;3.15;;;7.50;99.90;;;;;;4988208;28;20093;-72
2022/04/15 05:14:48;;;;;;;2.78;2.67;;;7.50;99.90;;;;;;4987728;28;20043;-72
2022/04/15 05:17:13;;;;;;;2.42;2.33;;;7.50;99.90;;;;;;4989658;28;20046;-72
2022/04/15 05:19:39;;;;;;;2.38;2.22;;;7.40;99.90;;;;;;4999995;28;20124;-72
2022/04/15 05:22:05;;;;;;;2.35;2.25;;;7.40;99.90;;;;;;4999431;28;20080;-72
2022/04/15 05:24:30;;;;;;;2.33;2.22;;;7.50;99.90;;;;;;4989491;28;20080;-72
2022/04/15 05:26:57;;;;;;;2.22;2.13;;;7.50;99.90;;;;;;5004436;28;20085;-73
2022/04/15 05:29:23;;;;;;;2.30;2.20;;;7.50;99.90;;;;;;4984863;28;20050;-72
2022/04/15 05:31:48;;;;;;;3.78;3.58;;;7.50;99.90;;;;;;5000524;28;20045;-72
2022/04/15 05:34:14;;;;;;;2.92;2.83;;;7.50;99.90;;;;;;5002785;28;20034;-72
2022/04/15 05:36:40;;;;;;;3.67;3.47;;;7.40;99.90;;;;;;4985480;28;20042;-72
2022/04/15 05:39:05;;;;;;;2.40;2.30;;;7.40;99.90;;;;;;4988222;28;20085;-72
2022/04/15 05:41:31;;;;;;;2.45;2.35;;;7.50;99.90;;;;;;5005991;28;20577;-72
2022/04/15 05:43:58;;;;;;;2.72;2.63;;;7.50;99.90;;;;;;5006866;28;20049;-72
2022/04/15 05:46:27;;;;;;;3.13;3.00;;;7.50;99.90;;;;;;5007386;28;20046;-72
2022/04/15 05:48:52;;;;;;;4.57;4.28;;;7.50;99.90;;;;;;4986889;28;20096;-72
2022/04/15 05:51:19;;;;;;;3.60;3.40;;;7.50;99.90;;;;;;4993867;28;20481;-72
2022/04/15 05:53:45;;;;;;;4.30;4.10;;;7.50;99.90;;;;;;5008570;28;20053;-72
2022/04/15 05:56:10;;;;;;;2.70;2.60;;;7.40;99.90;;;;;;5008775;28;20498;-72
2022/04/15 05:58:36;;;;;;;2.47;2.38;;;7.50;99.90;;;;;;5010207;28;20402;-72
2022/04/15 06:01:02;;;;;;;3.42;3.22;;;7.50;99.90;;;;;;5009753;28;20042;-73
2022/04/15 06:03:32;;;;;;;4.05;3.85;;;7.50;99.90;;;;;;4990398;28;20097;-71
2022/04/15 06:05:59;;;;;;;4.20;3.90;;;7.50;99.90;;;;;;4984780;28;20045;-71
2022/04/15 06:08:24;;;;;;;3.53;3.33;;;7.50;99.90;;;;;;5009928;28;20077;-71
2022/04/15 06:10:50;;;;;;;3.35;3.15;;;7.50;99.90;;;;;;5010070;28;20077;-71
2022/04/15 06:13:19;;;;;;;4.13;3.88;;;7.50;99.90;;;;;;5010086;28;20366;-71
2022/04/15 06:15:51;;;;;;;3.28;3.10;;;7.50;99.90;;;;;;4990388;28;20148;-72
2022/04/15 06:18:21;;;;;;;3.40;3.20;;;7.50;99.90;;;;;;4987335;28;20042;-72
2022/04/15 06:20:47;;;;;;;2.60;2.50;;;7.50;99.90;;;;;;5009444;28;20508;-72
2022/04/15 06:23:14;;;;;;;3.95;3.75;;;7.50;99.90;;;;;;5009576;28;20124;-71
2022/04/15 06:25:40;;;;;;;2.70;2.60;;;7.60;99.90;;;;;;4992701;28;20056;-71
2022/04/15 06:28:06;;;;;;;3.22;3.03;;;7.60;99.90;;;;;;4992316;28;20040;-72
2022/04/15 06:30:32;;;;;;;4.13;3.92;;;7.60;99.90;;;;;;5009315;28;20038;-71
2022/04/15 06:32:57;;;;;;;2.85;2.75;;;7.60;99.90;;;;;;4984260;28;20040;-71
2022/04/15 06:35:23;;;;;;;4.53;4.28;;;7.70;99.90;;;;;;4990024;28;20391;-71
2022/04/15 06:37:49;;;;;;;2.95;2.85;;;7.70;99.90;;;;;;5008804;28;20042;-72
2022/04/15 06:40:14;;;;;;;2.85;2.75;;;7.70;99.90;;;;;;5008371;28;20037;-72
2022/04/15 06:42:40;;;;;;;4.18;3.97;;;7.80;99.90;;;;;;5008975;28;20504;-71
2022/04/15 06:45:06;;;;;;;3.30;3.10;;;7.80;99.90;;;;;;4988794;28;20052;-72
2022/04/15 06:47:32;;;;;;;2.80;2.70;;;7.90;99.90;;;;;;4992897;28;20034;-72
2022/04/15 06:49:57;;;;;;;4.70;4.40;;;7.90;99.90;;;;;;5008737;28;20053;-72
2022/04/15 06:52:24;;;;;;;6.03;3.30;;;8.00;99.90;;;;;;5009627;28;20117;-72
2022/04/15 06:54:49;;;;;;;3.42;3.22;;;8.00;99.90;;;;;;5008981;28;20080;-72
2022/04/15 06:57:15;;;;;;;3.20;2.97;;;8.00;99.90;;;;;;4992472;28;20073;-72
2022/04/15 06:59:41;;;;;;;2.42;2.33;;;8.00;99.90;;;;;;5008931;28;20057;-72
2022/04/15 07:02:07;;;;;;;3.78;2.67;;;8.10;99.90;;;;;;5008641;28;20046;-71
2022/04/15 07:04:34;;;;;;;3.33;3.13;;;8.10;99.90;;;;;;4991632;28;20084;-72
2022/04/15 07:07:00;;;;;;;2.70;2.60;;;8.10;99.90;;;;;;5007774;28;20076;-71
2022/04/15 07:09:25;;;;;;;3.30;3.10;;;8.20;99.90;;;;;;5005877;28;20042;-71
2022/04/15 07:11:51;;;;;;;3.50;3.30;;;8.30;99.90;;;;;;4990473;28;20067;-72
2022/04/15 07:14:17;;;;;;;2.60;2.40;;;8.30;99.90;;;;;;4987938;28;20517;-72
2022/04/15 07:16:43;;;;;;;4.55;4.18;;;8.40;99.90;;;;;;5003543;28;20490;-71
2022/04/15 07:19:09;;;;;;;3.80;2.45;;;8.40;99.90;;;;;;5002966;28;20083;-71
2022/04/15 07:21:35;;;;;;;2.60;2.50;;;8.50;99.90;;;;;;5007373;28;20500;-72
2022/04/15 07:24:01;;;;;;;3.10;2.92;;;8.50;99.90;;;;;;5008040;28;20096;-72
2022/04/15 07:26:27;;;;;;;2.22;2.13;;;8.50;99.90;;;;;;5008342;28;20406;-72
2022/04/15 07:28:53;;;;;;;3.15;2.42;;;8.60;99.90;;;;;;5025223;28;20041;-72
2022/04/15 07:31:18;;;;;;;2.88;2.75;;;8.70;99.90;;;;;;4991779;28;20038;-72
2022/04/15 07:33:46;;;;;;;4.43;4.00;;;8.80;99.90;;;;;;5007716;28;20054;-71
2022/04/15 07:37:13;;;;;;;2.78;2.67;;;8.90;99.90;;;;;;4996639;28;20536;-71
2022/04/15 07:39:09;;;;;;;2.95;2.75;;;9.00;99.90;;;;;;4971778;28;20506;-72
2022/04/15 07:41:38;;;;;;;2.80;2.60;;;9.20;99.90;;;;;;4991808;28;20129;-72
2022/04/15 07:44:05;;;;;;;2.10;2.00;;;9.20;99.90;;;;;;4989914;28;20057;-72
2022/04/15 07:46:30;;;;;;;2.80;2.60;;;9.30;99.90;;;;;;4990530;28;20724;-72
2022/04/15 07:48:56;;;;;;;7.38;4.45;;;9.30;99.90;;;;;;5007064;28;20044;-72
2022/04/15 07:51:22;;;;;;;3.33;2.38;;;9.30;99.90;;;;;;5005227;28;20030;-72
2022/04/15 07:53:47;;;;;;;4.13;3.47;;;9.30;99.90;;;;;;4999424;28;20049;-72
2022/04/15 07:56:13;;;;;;;1.80;1.70;;;9.30;99.90;;;;;;4991283;28;20046;-72
2022/04/15 07:58:38;;;;;;;4.05;3.20;;;9.20;99.90;;;;;;5008241;28;20049;-72
2022/04/15 08:01:04;;;;;;;3.58;2.88;;;9.20;99.90;;;;;;5008048;28;20045;-71
2022/04/15 08:03:30;;;;;;;9.43;4.05;;;9.20;99.90;;;;;;4973179;28;20402;-72
2022/04/15 08:05:55;;;;;;;4.53;3.55;;;9.20;99.90;;;;;;4988385;28;20042;-72
2022/04/15 08:08:21;;;;;;;4.50;2.72;;;9.20;99.90;;;;;;4987817;28;20129;-72
2022/04/15 08:10:51;;;;;;;4.72;3.58;;;9.30;99.90;;;;;;4995961;28;20072;-72
2022/04/15 08:13:17;;;;;;;2.67;2.45;;;9.30;99.90;;;;;;5008252;28;20064;-71
2022/04/15 08:15:43;;;;;;;1.85;1.73;;;9.30;99.90;;;;;;4991143;28;20383;-71
2022/04/15 08:18:08;;;;;;;1.70;1.58;;;9.40;99.90;;;;;;4996294;28;20376;-72
2022/04/15 08:20:34;;;;;;;1.90;1.60;;;9.50;99.90;;;;;;4972086;28;20046;-72
2022/04/15 08:23:00;;;;;;;8.40;1.55;;;9.60;99.90;;;;;;4999593;28;20042;-72
2022/04/15 08:25:26;;;;;;;2.22;2.03;;;9.70;99.90;;;;;;5007988;28;20053;-72
2022/04/15 08:27:52;;;;;;;1.10;1.10;;;9.90;99.90;;;;;;5007896;28;20034;-72
2022/04/15 08:30:17;;;;;;;1.67;1.58;;;10.00;99.90;;;;;;5007805;28;20402;-72
2022/04/15 08:32:43;;;;;;;6.68;2.58;;;10.20;99.90;;;;;;5007589;28;20076;-72
2022/04/15 08:35:13;;;;;;;2.47;2.17;;;10.40;99.90;;;;;;4991435;28;20453;-72
2022/04/15 08:37:38;;;;;;;2.15;1.95;;;10.40;99.90;;;;;;4991094;28;20050;-72
2022/04/15 08:40:04;;;;;;;2.03;1.73;;;10.30;99.90;;;;;;5007699;28;20663;-72
2022/04/15 08:42:30;;;;;;;4.13;1.75;;;10.40;99.90;;;;;;5004261;28;20078;-71
2022/04/15 08:44:56;;;;;;;3.10;1.05;;;10.50;99.90;;;;;;4988159;28;20121;-71
2022/04/15 08:47:24;;;;;;;6.32;2.83;;;10.50;99.90;;;;;;5000812;28;20050;-72
2022/04/15 08:49:49;;;;;;;5.20;2.30;;;10.60;99.90;;;;;;5004273;28;20054;-71
2022/04/15 08:52:17;;;;;;;0.65;0.65;;;10.60;99.90;;;;;;4971528;28;20384;-72
2022/04/15 08:54:44;;;;;;;1.95;1.75;;;10.60;99.90;;;;;;4988285;28;20569;-72
2022/04/15 08:57:10;;;;;;;6.07;2.38;;;10.60;99.90;;;;;;4974146;28;20081;-72
2022/04/15 08:59:36;;;;;;;3.08;2.05;;;10.80;99.90;;;;;;5007909;28;20046;-72
2022/04/15 09:02:01;;;;;;;1.10;1.05;;;11.40;99.90;;;;;;5023574;28;20053;-72
2022/04/15 09:04:27;;;;;;;3.47;2.55;;;12.10;99.90;;;;;;4989544;28;20433;-72
2022/04/15 09:06:58;;;;;;;7.82;3.42;;;12.30;99.90;;;;;;4973240;28;20621;-72
2022/04/15 09:09:31;;;;;;;2.45;2.25;;;12.10;99.90;;;;;;4995447;28;20046;-71
2022/04/15 09:12:04;;;;;;;6.93;2.70;;;12.00;99.90;;;;;;4987869;28;20043;-71
2022/04/15 09:14:29;;;;;;;4.43;2.35;;;12.40;99.90;;;;;;4992866;28;20045;-72
2022/04/15 09:16:55;;;;;;;3.35;2.80;;;13.00;99.90;;;;;;4995369;28;20391;-72
2022/04/15 09:19:21;;;;;;;1.30;1.20;;;13.50;99.90;;;;;;4999526;28;20106;-72
2022/04/15 09:21:53;;;;;;;1.55;1.45;;;13.80;99.90;;;;;;4993082;28;20046;-72
2022/04/15 09:24:31;;;;;;;0.77;0.77;;;13.70;99.90;;;;;;4991707;28;20474;-72
2022/04/15 09:26:57;;;;;;;0.80;0.80;;;13.40;99.90;;;;;;4991429;28;20058;-72
2022/04/15 09:29:25;;;;;;;0.70;0.70;;;13.00;99.90;;;;;;4991714;28;20387;-72
2022/04/15 09:31:57;;;;;;;1.65;1.45;;;12.60;99.90;;;;;;5005320;28;20065;-72
2022/04/15 09:34:23;;;;;;;2.28;2.08;;;12.40;99.90;;;;;;4974979;28;20053;-73
2022/04/15 09:36:50;;;;;;;3.65;2.13;;;12.80;99.90;;;;;;4991294;28;20042;-72
2022/04/15 09:39:16;;;;;;;0.50;0.50;;;13.60;99.90;;;;;;4991102;28;20049;-72
2022/04/15 09:41:48;;;;;;;6.93;2.08;;;14.10;99.90;;;;;;4991186;28;20042;-71
2022/04/15 09:44:14;;;;;;;9.07;2.25;;;14.60;99.90;;;;;;5004393;28;20054;-72
2022/04/15 09:46:46;;;;;;;5.53;2.75;;;14.50;99.90;;;;;;4991305;28;20046;-72
2022/04/15 09:49:12;;;;;;;0.80;0.80;;;14.20;99.90;;;;;;5007366;28;20526;-72
2022/04/15 09:51:46;;;;;;;1.65;0.98;;;13.70;99.90;;;;;;4975068;28;20453;-72
2022/04/15 09:54:34;;;;;;;1.80;1.23;;;13.30;99.90;;;;;;4974863;28;20163;-72
2022/04/15 09:57:01;;;;;;;2.40;1.50;;;13.00;99.90;;;;;;5001571;28;20046;-72
2022/04/15 09:59:28;;;;;;;0.98;0.98;;;12.90;99.90;;;;;;5023335;28;20050;-72
2022/04/15 10:02:03;;;;;;;3.25;2.00;;;12.60;99.90;;;;;;4999916;28;20152;-72
2022/04/15 10:04:29;;;;;;;0.93;0.93;;;12.50;99.90;;;;;;5025870;28;20509;-72
2022/04/15 10:06:55;;;;;;;0.20;0.20;;;12.30;99.90;;;;;;5026757;28;20080;-72
2022/04/15 10:09:21;;;;;;;1.88;1.42;;;12.20;99.90;;;;;;4993967;28;20414;-72
2022/04/15 10:11:48;;;;;;;2.45;1.00;;;12.30;99.90;;;;;;4993865;28;20045;-72
2022/04/15 10:14:16;;;;;;;2.65;2.10;;;12.40;99.90;;;;;;5010055;28;20045;-72
2022/04/15 10:16:43;;;;;;;1.55;0.93;;;12.30;99.90;;;;;;4994239;28;20079;-72
2022/04/15 10:19:10;;;;;;;2.50;1.88;;;12.30;99.90;;;;;;5008856;28;20050;-72
2022/04/15 10:21:42;;;;;;;1.58;1.08;;;12.40;99.90;;;;;;5009325;28;20042;-72
2022/04/15 10:24:09;;;;;;;1.75;1.65;;;12.40;99.90;;;;;;5002112;28;20543;-73
2022/04/15 10:26:35;;;;;;;3.35;1.58;;;12.30;99.90;;;;;;4991998;28;20060;-73
2022/04/15 10:29:04;;;;;;;0.50;0.50;;;12.20;99.90;;;;;;4992797;28;20417;-72
2022/04/15 10:31:38;;;;;;;11.00;3.25;;;12.10;99.90;;;;;;4991746;28;20088;-72
2022/04/15 10:34:12;;;;;;;1.98;1.17;;;12.10;99.90;;;;;;5005881;28;20051;-73
2022/04/15 10:36:42;;;;;;;2.20;1.77;;;12.00;99.90;;;;;;5010083;28;20454;-72
2022/04/15 10:39:09;;;;;;;1.17;1.00;;;12.00;99.90;;;;;;5008427;28;20181;-73
2022/04/15 10:41:46;;;;;;;2.83;1.77;;;12.10;99.90;;;;;;5006397;28;20407;-72
2022/04/15 10:44:14;;;;;;;2.25;1.80;;;12.20;99.90;;;;;;5005934;28;20133;-74
2022/04/15 10:46:40;;;;;;;0.60;0.60;;;12.10;99.90;;;;;;5004705;28;20453;-73
2022/04/15 10:49:23;;;;;;;0.35;0.35;;;12.00;99.90;;;;;;5005448;28;20044;-72
2022/04/15 10:52:21;;;;;;;6.22;2.30;;;12.00;99.90;;;;;;5004305;28;20045;-72
2022/04/15 10:54:53;;;;;;;1.27;1.20;;;12.00;99.90;;;;;;5000636;28;20066;-73
2022/04/15 10:57:21;;;;;;;5.50;3.30;;;11.90;99.90;;;;;;4988563;28;20045;-73
2022/04/15 11:02:49;;;;;;;;;;;11.70;99.90;;;;;;5003139;28;20077;-73
2022/04/15 11:05:30;;;;;;;1.23;1.15;;;11.70;99.90;;;;;;4981830;28;19932;-73
2022/04/15 11:08:05;;;;;;;0.20;0.20;;;11.70;99.90;;;;;;4984901;28;20045;-73
2022/04/15 11:10:42;;;;;;;1.15;1.08;;;11.70;99.90;;;;;;5001251;28;20052;-73
2022/04/15 11:13:09;;;;;;;1.05;0.95;;;11.70;99.90;;;;;;4993205;28;20128;-72
2022/04/15 11:15:58;;;;;;;1.55;1.45;;;11.70;99.90;;;;;;5018520;28;20108;-72
2022/04/15 11:18:41;;;;;;;1.55;1.23;;;11.70;99.90;;;;;;5003425;28;20371;-72
2022/04/15 11:21:07;;;;;;;4.22;2.50;;;11.80;99.90;;;;;;4987160;28;20042;-72
2022/04/15 11:23:33;;;;;;;0.70;0.70;;;11.70;99.90;;;;;;5019305;28;20481;-72
2022/04/15 11:26:00;;;;;;;0.98;0.98;;;11.70;99.90;;;;;;5001582;28;20100;-72
2022/04/15 11:28:27;;;;;;;2.80;1.63;;;11.60;99.90;;;;;;4969632;28;20046;-73
2022/04/15 11:30:52;;;;;;;0.20;0.20;;;11.70;99.90;;;;;;4970123;28;20446;-72
2022/04/15 11:33:18;;;;;;;0.22;0.22;;;11.60;99.90;;;;;;4988387;28;20133;-72
2022/04/15 11:35:44;;;;;;;0.30;0.30;;;11.60;99.90;;;;;;4989315;28;20120;-72
2022/04/15 11:38:13;;;;;;;5.28;2.00;;;11.60;99.90;;;;;;5008329;28;20045;-72
2022/04/15 11:40:43;;;;;;;0.50;0.50;;;11.60;99.90;;;;;;4988834;28;20478;-72
2022/04/15 11:43:11;;;;;;;3.08;2.03;;;11.60;99.90;;;;;;4994645;28;20042;-72
2022/04/15 11:45:42;;;;;;;1.15;0.82;;;11.50;99.90;;;;;;5000145;28;20034;-72
2022/04/15 11:48:17;;;;;;;6.13;3.30;;;11.50;99.90;;;;;;5008342;28;20095;-72
2022/04/15 11:50:43;;;;;;;1.85;0.68;;;11.40;99.90;;;;;;5000302;28;20050;-73
2022/04/15 11:53:09;;;;;;;0.85;0.85;;;11.40;99.90;;;;;;4988612;28;20049;-72
2022/04/15 11:56:01;;;;;;;3.65;2.63;;;11.40;99.90;;;;;;4995346;28;20084;-73
2022/04/15 11:58:35;;;;;;;1.52;1.35;;;11.40;99.90;;;;;;4988705;28;20046;-72
2022/04/15 12:01:02;;;;;;;3.10;1.25;;;11.20;99.90;;;;;;4991110;28;20107;-72
2022/04/15 12:03:28;;;;;;;0.22;0.22;;;11.10;99.90;;;;;;4991305;28;20072;-72
2022/04/15 12:05:57;;;;;;;0.88;0.75;;;11.10;99.90;;;;;;5007460;28;20041;-72
2022/04/15 12:08:24;;;;;;;2.10;1.48;;;11.20;99.90;;;;;;4990778;28;20557;-73
2022/04/15 12:10:50;;;;;;;3.22;1.75;;;11.30;99.90;;;;;;4991684;28;20239;-72
2022/04/15 12:13:17;;;;;;;0.15;0.15;;;11.30;99.90;;;;;;4980661;28;20125;-72
2022/04/15 12:15:44;;;;;;;3.03;2.15;;;11.20;99.90;;;;;;5004893;28;20057;-73
2022/04/15 12:18:10;;;;;;;0.60;0.60;;;11.10;99.90;;;;;;4993760;28;20053;-73
2022/04/15 12:20:39;;;;;;;8.40;2.10;;;11.00;99.90;;;;;;4973723;28;20451;-72
2022/04/15 12:23:08;;;;;;;1.00;0.93;;;11.00;99.90;;;;;;4988062;28;20104;-73
2022/04/15 12:31:03;;;;;;;0.50;0.40;;;11.20;99.90;;;;;;5007035;28;20490;-72
2022/04/15 12:33:29;;;;;;;0.30;0.30;;;11.30;99.90;;;;;;4988630;28;20092;-73
2022/04/15 12:36:03;;;;;;;0.30;0.30;;;11.30;99.90;;;;;;4988456;28;20046;-72
2022/04/15 12:38:49;;;;;;;0.35;0.35;;;11.20;99.90;;;;;;4988488;28;20042;-72
2022/04/15 12:41:15;;;;;;;3.67;1.58;;;11.20;99.90;;;;;;5000047;28;20057;-73
2022/04/15 12:43:41;;;;;;;2.92;2.38;;;11.20;99.90;;;;;;4988059;28;20038;-72
2022/04/15 12:46:16;;;;;;;6.55;2.03;;;11.20;99.90;;;;;;4991151;28;20034;-72
2022/04/15 12:48:49;;;;;;;1.55;1.45;;;11.10;99.90;;;;;;4975951;28;20604;-72
2022/04/15 12:51:15;;;;;;;0.75;0.75;;;11.10;99.90;;;;;;5004169;28;20038;-72
2022/04/15 12:53:43;;;;;;;0.70;0.70;;;11.00;99.90;;;;;;5004080;28;20457;-72
2022/04/15 12:56:13;;;;;;;0.57;0.57;;;11.00;99.90;;;;;;5007303;28;20410;-72
2022/04/15 12:58:53;;;;;;;1.45;1.35;;;10.90;99.90;;;;;;4992404;28;20434;-72
2022/04/15 13:01:18;;;;;;;1.10;1.02;;;10.90;99.90;;;;;;4992117;28;20045;-72